sensor_id;sensor_type;location;lat;lon;timestamp;P1;durP1;ratioP1;P2;durP2;ratioP2
68089;SDS011;54880;50.986;6.990;2023-12-22T00:02:08;5.77;;;1.37;;
68089;SDS011;54880;50.986;6.990;2023-12-22T00:04:34;5.03;;;0.83;;
68089;SDS011;54880;50.986;6.990;2023-12-22T00:06:59;4.10;;;0.80;;
68089;SDS011;54880;50.986;6.990;2023-12-22T00:09:24;4.77;;;0.80;;
68089;SDS011;54880;50.986;6.990;2023-12-22T00:11:49;7.33;;;0.70;;
68089;SDS011;54880;50.986;6.990;2023-12-22T00:14:14;8.83;;;1.00;;
68089;SDS011;54880;50.986;6.990;2023-12-22T00:16:40;4.60;;;0.80;;
68089;SDS011;54880;50.986;6.990;2023-12-22T00:19:05;6.13;;;1.10;;
68089;SDS011;54880;50.986;6.990;2023-12-22T00:21:30;7.00;;;1.30;;
68089;SDS011;54880;50.986;6.990;2023-12-22T00:23:56;11.23;;;1.02;;
68089;SDS011;54880;50.986;6.990;2023-12-22T00:26:22;11.57;;;1.73;;
68089;SDS011;54880;50.986;6.990;2023-12-22T00:28:47;7.43;;;1.00;;
68089;SDS011;54880;50.986;6.990;2023-12-22T00:31:12;4.27;;;0.90;;
68089;SDS011;54880;50.986;6.990;2023-12-22T00:33:38;9.50;;;1.17;;
68089;SDS011;54880;50.986;6.990;2023-12-22T00:36:03;4.63;;;0.80;;
68089;SDS011;54880;50.986;6.990;2023-12-22T00:38:28;5.65;;;1.23;;
68089;SDS011;54880;50.986;6.990;2023-12-22T00:40:53;6.27;;;0.83;;
68089;SDS011;54880;50.986;6.990;2023-12-22T00:43:19;8.50;;;1.00;;
68089;SDS011;54880;50.986;6.990;2023-12-22T00:45:44;10.37;;;0.90;;
68089;SDS011;54880;50.986;6.990;2023-12-22T00:48:09;8.43;;;0.87;;
68089;SDS011;54880;50.986;6.990;2023-12-22T00:50:34;4.33;;;0.73;;
68089;SDS011;54880;50.986;6.990;2023-12-22T00:53:00;9.73;;;1.13;;
68089;SDS011;54880;50.986;6.990;2023-12-22T00:55:25;6.73;;;1.10;;
68089;SDS011;54880;50.986;6.990;2023-12-22T00:57:50;6.27;;;1.00;;
68089;SDS011;54880;50.986;6.990;2023-12-22T01:00:15;6.73;;;0.70;;
68089;SDS011;54880;50.986;6.990;2023-12-22T01:02:41;7.27;;;1.00;;
68089;SDS011;54880;50.986;6.990;2023-12-22T01:05:06;5.80;;;0.97;;
68089;SDS011;54880;50.986;6.990;2023-12-22T01:07:31;8.70;;;1.30;;
68089;SDS011;54880;50.986;6.990;2023-12-22T01:09:56;7.27;;;0.93;;
68089;SDS011;54880;50.986;6.990;2023-12-22T01:12:26;6.90;;;1.05;;
68089;SDS011;54880;50.986;6.990;2023-12-22T01:14:51;11.77;;;1.13;;
68089;SDS011;54880;50.986;6.990;2023-12-22T01:17:17;10.17;;;1.30;;
68089;SDS011;54880;50.986;6.990;2023-12-22T01:19:42;6.40;;;1.10;;
68089;SDS011;54880;50.986;6.990;2023-12-22T01:22:07;8.20;;;1.30;;
68089;SDS011;54880;50.986;6.990;2023-12-22T01:24:33;4.70;;;0.90;;
68089;SDS011;54880;50.986;6.990;2023-12-22T01:26:58;7.50;;;1.20;;
68089;SDS011;54880;50.986;6.990;2023-12-22T01:29:24;8.02;;;1.00;;
68089;SDS011;54880;50.986;6.990;2023-12-22T01:31:49;10.30;;;1.17;;
68089;SDS011;54880;50.986;6.990;2023-12-22T01:34:14;8.77;;;1.17;;
68089;SDS011;54880;50.986;6.990;2023-12-22T01:36:40;7.13;;;0.90;;
68089;SDS011;54880;50.986;6.990;2023-12-22T01:39:05;10.63;;;1.90;;
68089;SDS011;54880;50.986;6.990;2023-12-22T01:41:30;8.93;;;1.33;;
68089;SDS011;54880;50.986;6.990;2023-12-22T01:43:55;8.33;;;1.30;;
68089;SDS011;54880;50.986;6.990;2023-12-22T01:46:21;8.60;;;1.50;;
68089;SDS011;54880;50.986;6.990;2023-12-22T01:48:46;6.13;;;1.00;;
68089;SDS011;54880;50.986;6.990;2023-12-22T01:51:11;10.63;;;1.40;;
68089;SDS011;54880;50.986;6.990;2023-12-22T01:53:37;9.00;;;0.90;;
68089;SDS011;54880;50.986;6.990;2023-12-22T01:56:02;11.30;;;1.30;;
68089;SDS011;54880;50.986;6.990;2023-12-22T01:58:27;7.63;;;1.00;;
68089;SDS011;54880;50.986;6.990;2023-12-22T02:00:54;7.35;;;1.00;;
68089;SDS011;54880;50.986;6.990;2023-12-22T02:03:19;6.23;;;0.90;;
68089;SDS011;54880;50.986;6.990;2023-12-22T02:05:46;8.77;;;1.23;;
68089;SDS011;54880;50.986;6.990;2023-12-22T02:08:11;8.87;;;1.27;;
68089;SDS011;54880;50.986;6.990;2023-12-22T02:10:36;4.72;;;1.05;;
68089;SDS011;54880;50.986;6.990;2023-12-22T02:13:03;8.50;;;1.40;;
68089;SDS011;54880;50.986;6.990;2023-12-22T02:15:28;10.75;;;1.10;;
68089;SDS011;54880;50.986;6.990;2023-12-22T02:18:06;4.97;;;0.80;;
68089;SDS011;54880;50.986;6.990;2023-12-22T02:20:32;7.70;;;1.13;;
68089;SDS011;54880;50.986;6.990;2023-12-22T02:22:57;9.20;;;1.10;;
68089;SDS011;54880;50.986;6.990;2023-12-22T02:25:22;10.67;;;1.50;;
68089;SDS011;54880;50.986;6.990;2023-12-22T02:27:49;10.43;;;1.07;;
68089;SDS011;54880;50.986;6.990;2023-12-22T02:30:19;8.05;;;1.20;;
68089;SDS011;54880;50.986;6.990;2023-12-22T02:32:49;8.63;;;1.02;;
68089;SDS011;54880;50.986;6.990;2023-12-22T02:35:16;13.20;;;1.50;;
68089;SDS011;54880;50.986;6.990;2023-12-22T02:37:42;8.82;;;1.38;;
68089;SDS011;54880;50.986;6.990;2023-12-22T02:40:08;5.60;;;1.00;;
68089;SDS011;54880;50.986;6.990;2023-12-22T02:42:35;7.72;;;1.80;;
68089;SDS011;54880;50.986;6.990;2023-12-22T02:45:00;10.30;;;1.20;;
68089;SDS011;54880;50.986;6.990;2023-12-22T02:47:26;11.32;;;1.35;;
68089;SDS011;54880;50.986;6.990;2023-12-22T02:49:54;8.75;;;1.52;;
68089;SDS011;54880;50.986;6.990;2023-12-22T02:52:19;7.47;;;1.30;;
68089;SDS011;54880;50.986;6.990;2023-12-22T02:54:44;7.60;;;1.33;;
68089;SDS011;54880;50.986;6.990;2023-12-22T02:57:10;9.25;;;1.42;;
68089;SDS011;54880;50.986;6.990;2023-12-22T02:59:36;12.23;;;1.47;;
68089;SDS011;54880;50.986;6.990;2023-12-22T03:02:02;10.10;;;1.20;;
68089;SDS011;54880;50.986;6.990;2023-12-22T03:04:27;10.57;;;1.13;;
68089;SDS011;54880;50.986;6.990;2023-12-22T03:06:52;14.77;;;2.13;;
68089;SDS011;54880;50.986;6.990;2023-12-22T03:09:17;10.43;;;1.50;;
68089;SDS011;54880;50.986;6.990;2023-12-22T03:11:42;17.05;;;1.92;;
68089;SDS011;54880;50.986;6.990;2023-12-22T03:14:08;11.45;;;1.40;;
68089;SDS011;54880;50.986;6.990;2023-12-22T03:16:34;16.27;;;2.20;;
68089;SDS011;54880;50.986;6.990;2023-12-22T03:18:59;8.97;;;1.30;;
68089;SDS011;54880;50.986;6.990;2023-12-22T03:21:24;11.70;;;1.53;;
68089;SDS011;54880;50.986;6.990;2023-12-22T03:23:50;8.33;;;1.10;;
68089;SDS011;54880;50.986;6.990;2023-12-22T03:26:15;8.20;;;1.60;;
68089;SDS011;54880;50.986;6.990;2023-12-22T03:28:40;7.53;;;0.98;;
68089;SDS011;54880;50.986;6.990;2023-12-22T03:31:05;13.65;;;2.05;;
68089;SDS011;54880;50.986;6.990;2023-12-22T03:33:32;10.98;;;1.65;;
68089;SDS011;54880;50.986;6.990;2023-12-22T03:35:57;14.38;;;1.75;;
68089;SDS011;54880;50.986;6.990;2023-12-22T03:38:22;10.13;;;1.80;;
68089;SDS011;54880;50.986;6.990;2023-12-22T03:40:47;11.60;;;2.90;;
68089;SDS011;54880;50.986;6.990;2023-12-22T03:43:12;11.17;;;2.70;;
68089;SDS011;54880;50.986;6.990;2023-12-22T03:45:38;9.80;;;1.70;;
68089;SDS011;54880;50.986;6.990;2023-12-22T03:48:03;9.27;;;1.80;;
68089;SDS011;54880;50.986;6.990;2023-12-22T03:50:28;11.25;;;1.75;;
68089;SDS011;54880;50.986;6.990;2023-12-22T03:52:54;13.10;;;1.97;;
68089;SDS011;54880;50.986;6.990;2023-12-22T03:55:19;10.63;;;1.70;;
68089;SDS011;54880;50.986;6.990;2023-12-22T03:57:44;13.40;;;2.03;;
68089;SDS011;54880;50.986;6.990;2023-12-22T04:00:09;12.80;;;2.30;;
68089;SDS011;54880;50.986;6.990;2023-12-22T04:02:35;11.07;;;2.23;;
68089;SDS011;54880;50.986;6.990;2023-12-22T04:05:00;12.87;;;1.87;;
68089;SDS011;54880;50.986;6.990;2023-12-22T04:07:25;10.90;;;1.63;;
68089;SDS011;54880;50.986;6.990;2023-12-22T04:09:50;12.70;;;1.70;;
68089;SDS011;54880;50.986;6.990;2023-12-22T04:12:16;13.53;;;2.00;;
68089;SDS011;54880;50.986;6.990;2023-12-22T04:14:41;9.17;;;1.97;;
68089;SDS011;54880;50.986;6.990;2023-12-22T04:17:06;10.33;;;2.03;;
68089;SDS011;54880;50.986;6.990;2023-12-22T04:19:31;12.27;;;1.50;;
68089;SDS011;54880;50.986;6.990;2023-12-22T04:21:56;10.43;;;1.30;;
68089;SDS011;54880;50.986;6.990;2023-12-22T04:24:22;9.77;;;1.20;;
68089;SDS011;54880;50.986;6.990;2023-12-22T04:26:47;10.53;;;1.73;;
68089;SDS011;54880;50.986;6.990;2023-12-22T04:29:12;13.53;;;1.77;;
68089;SDS011;54880;50.986;6.990;2023-12-22T04:31:38;9.38;;;1.40;;
68089;SDS011;54880;50.986;6.990;2023-12-22T04:34:03;13.10;;;1.53;;
68089;SDS011;54880;50.986;6.990;2023-12-22T04:36:29;11.17;;;1.83;;
68089;SDS011;54880;50.986;6.990;2023-12-22T04:38:54;11.77;;;1.57;;
68089;SDS011;54880;50.986;6.990;2023-12-22T04:41:19;11.90;;;1.93;;
68089;SDS011;54880;50.986;6.990;2023-12-22T04:43:44;11.80;;;1.80;;
68089;SDS011;54880;50.986;6.990;2023-12-22T04:46:10;7.07;;;1.43;;
68089;SDS011;54880;50.986;6.990;2023-12-22T04:48:35;11.03;;;1.67;;
68089;SDS011;54880;50.986;6.990;2023-12-22T04:51:00;10.60;;;1.50;;
68089;SDS011;54880;50.986;6.990;2023-12-22T04:53:25;9.33;;;1.50;;
68089;SDS011;54880;50.986;6.990;2023-12-22T04:55:51;12.37;;;1.63;;
68089;SDS011;54880;50.986;6.990;2023-12-22T04:58:16;12.77;;;1.70;;
68089;SDS011;54880;50.986;6.990;2023-12-22T05:00:41;15.77;;;1.93;;
68089;SDS011;54880;50.986;6.990;2023-12-22T05:03:07;11.27;;;1.57;;
68089;SDS011;54880;50.986;6.990;2023-12-22T05:05:32;8.63;;;1.80;;
68089;SDS011;54880;50.986;6.990;2023-12-22T05:07:57;16.80;;;1.90;;
68089;SDS011;54880;50.986;6.990;2023-12-22T05:10:23;12.63;;;1.60;;
68089;SDS011;54880;50.986;6.990;2023-12-22T05:12:48;11.00;;;1.33;;
68089;SDS011;54880;50.986;6.990;2023-12-22T05:15:13;14.50;;;1.93;;
68089;SDS011;54880;50.986;6.990;2023-12-22T05:17:39;13.98;;;1.52;;
68089;SDS011;54880;50.986;6.990;2023-12-22T05:20:06;11.52;;;1.85;;
68089;SDS011;54880;50.986;6.990;2023-12-22T05:22:31;11.55;;;1.70;;
68089;SDS011;54880;50.986;6.990;2023-12-22T05:24:57;16.97;;;2.10;;
68089;SDS011;54880;50.986;6.990;2023-12-22T05:27:22;11.60;;;1.83;;
68089;SDS011;54880;50.986;6.990;2023-12-22T05:29:47;14.00;;;1.87;;
68089;SDS011;54880;50.986;6.990;2023-12-22T05:32:13;19.50;;;2.00;;
68089;SDS011;54880;50.986;6.990;2023-12-22T05:34:38;16.88;;;2.75;;
68089;SDS011;54880;50.986;6.990;2023-12-22T05:37:03;7.20;;;1.43;;
68089;SDS011;54880;50.986;6.990;2023-12-22T05:39:28;13.05;;;2.30;;
68089;SDS011;54880;50.986;6.990;2023-12-22T05:41:54;17.33;;;2.47;;
68089;SDS011;54880;50.986;6.990;2023-12-22T05:44:19;10.63;;;1.77;;
68089;SDS011;54880;50.986;6.990;2023-12-22T05:46:44;11.50;;;1.80;;
68089;SDS011;54880;50.986;6.990;2023-12-22T05:49:09;13.03;;;1.70;;
68089;SDS011;54880;50.986;6.990;2023-12-22T05:51:38;14.93;;;2.17;;
68089;SDS011;54880;50.986;6.990;2023-12-22T05:54:04;12.17;;;2.10;;
68089;SDS011;54880;50.986;6.990;2023-12-22T05:56:30;17.42;;;2.00;;
68089;SDS011;54880;50.986;6.990;2023-12-22T05:58:55;14.23;;;1.63;;
68089;SDS011;54880;50.986;6.990;2023-12-22T06:01:20;13.73;;;1.90;;
68089;SDS011;54880;50.986;6.990;2023-12-22T06:03:46;15.60;;;1.73;;
68089;SDS011;54880;50.986;6.990;2023-12-22T06:06:11;14.73;;;1.90;;
68089;SDS011;54880;50.986;6.990;2023-12-22T06:08:37;10.38;;;1.67;;
68089;SDS011;54880;50.986;6.990;2023-12-22T06:11:02;11.27;;;1.70;;
68089;SDS011;54880;50.986;6.990;2023-12-22T06:13:28;11.00;;;1.60;;
68089;SDS011;54880;50.986;6.990;2023-12-22T06:15:53;15.85;;;2.03;;
68089;SDS011;54880;50.986;6.990;2023-12-22T06:18:18;11.33;;;2.30;;
68089;SDS011;54880;50.986;6.990;2023-12-22T06:20:44;8.27;;;1.50;;
68089;SDS011;54880;50.986;6.990;2023-12-22T06:23:09;16.00;;;1.73;;
68089;SDS011;54880;50.986;6.990;2023-12-22T06:25:34;11.67;;;2.10;;
68089;SDS011;54880;50.986;6.990;2023-12-22T06:27:59;10.83;;;1.73;;
68089;SDS011;54880;50.986;6.990;2023-12-22T06:30:25;18.23;;;2.47;;
68089;SDS011;54880;50.986;6.990;2023-12-22T06:32:50;12.63;;;1.73;;
68089;SDS011;54880;50.986;6.990;2023-12-22T06:35:15;9.93;;;1.57;;
68089;SDS011;54880;50.986;6.990;2023-12-22T06:37:40;13.43;;;1.70;;
68089;SDS011;54880;50.986;6.990;2023-12-22T06:40:06;14.47;;;1.80;;
68089;SDS011;54880;50.986;6.990;2023-12-22T06:42:31;11.03;;;1.93;;
68089;SDS011;54880;50.986;6.990;2023-12-22T06:44:56;11.80;;;1.87;;
68089;SDS011;54880;50.986;6.990;2023-12-22T06:47:22;14.70;;;1.90;;
68089;SDS011;54880;50.986;6.990;2023-12-22T06:49:47;13.73;;;2.10;;
68089;SDS011;54880;50.986;6.990;2023-12-22T06:52:12;12.30;;;2.40;;
68089;SDS011;54880;50.986;6.990;2023-12-22T06:54:37;13.10;;;1.93;;
68089;SDS011;54880;50.986;6.990;2023-12-22T06:57:03;9.40;;;1.47;;
68089;SDS011;54880;50.986;6.990;2023-12-22T06:59:28;11.33;;;2.03;;
68089;SDS011;54880;50.986;6.990;2023-12-22T07:01:53;7.80;;;1.57;;
68089;SDS011;54880;50.986;6.990;2023-12-22T07:04:20;9.45;;;1.30;;
68089;SDS011;54880;50.986;6.990;2023-12-22T07:06:45;9.10;;;1.20;;
68089;SDS011;54880;50.986;6.990;2023-12-22T07:11:42;7.55;;;0.98;;
68089;SDS011;54880;50.986;6.990;2023-12-22T07:14:08;5.43;;;1.20;;
68089;SDS011;54880;50.986;6.990;2023-12-22T07:16:34;7.50;;;0.80;;
68089;SDS011;54880;50.986;6.990;2023-12-22T07:18:59;5.73;;;1.10;;
68089;SDS011;54880;50.986;6.990;2023-12-22T07:21:24;6.33;;;1.10;;
68089;SDS011;54880;50.986;6.990;2023-12-22T07:23:50;7.47;;;1.00;;
68089;SDS011;54880;50.986;6.990;2023-12-22T07:26:15;6.87;;;1.23;;
68089;SDS011;54880;50.986;6.990;2023-12-22T07:28:45;9.40;;;1.55;;
68089;SDS011;54880;50.986;6.990;2023-12-22T07:31:11;10.70;;;1.77;;
68089;SDS011;54880;50.986;6.990;2023-12-22T07:33:36;8.93;;;1.13;;
68089;SDS011;54880;50.986;6.990;2023-12-22T07:36:01;8.10;;;1.23;;
68089;SDS011;54880;50.986;6.990;2023-12-22T07:38:27;14.20;;;2.30;;
68089;SDS011;54880;50.986;6.990;2023-12-22T07:40:53;8.02;;;1.40;;
68089;SDS011;54880;50.986;6.990;2023-12-22T07:43:18;12.37;;;1.57;;
68089;SDS011;54880;50.986;6.990;2023-12-22T07:45:44;7.97;;;1.33;;
68089;SDS011;54880;50.986;6.990;2023-12-22T07:48:09;8.33;;;1.33;;
68089;SDS011;54880;50.986;6.990;2023-12-22T07:50:34;11.53;;;1.50;;
68089;SDS011;54880;50.986;6.990;2023-12-22T07:53:00;10.07;;;1.30;;
68089;SDS011;54880;50.986;6.990;2023-12-22T07:55:25;12.60;;;2.20;;
68089;SDS011;54880;50.986;6.990;2023-12-22T07:57:50;11.07;;;1.43;;
68089;SDS011;54880;50.986;6.990;2023-12-22T08:00:16;13.53;;;2.30;;
68089;SDS011;54880;50.986;6.990;2023-12-22T08:02:41;11.60;;;1.63;;
68089;SDS011;54880;50.986;6.990;2023-12-22T08:05:07;13.37;;;2.00;;
68089;SDS011;54880;50.986;6.990;2023-12-22T08:07:32;18.00;;;2.83;;
68089;SDS011;54880;50.986;6.990;2023-12-22T08:09:57;16.63;;;3.13;;
68089;SDS011;54880;50.986;6.990;2023-12-22T08:12:23;16.97;;;4.27;;
68089;SDS011;54880;50.986;6.990;2023-12-22T08:14:48;15.80;;;2.67;;
68089;SDS011;54880;50.986;6.990;2023-12-22T08:17:13;19.30;;;2.87;;
68089;SDS011;54880;50.986;6.990;2023-12-22T08:19:39;17.10;;;2.73;;
68089;SDS011;54880;50.986;6.990;2023-12-22T08:22:04;14.02;;;2.63;;
68089;SDS011;54880;50.986;6.990;2023-12-22T08:24:29;15.50;;;2.55;;
68089;SDS011;54880;50.986;6.990;2023-12-22T08:26:54;15.45;;;2.63;;
68089;SDS011;54880;50.986;6.990;2023-12-22T08:29:20;25.50;;;3.58;;
68089;SDS011;54880;50.986;6.990;2023-12-22T08:31:45;19.80;;;3.13;;
68089;SDS011;54880;50.986;6.990;2023-12-22T08:34:11;18.03;;;2.80;;
68089;SDS011;54880;50.986;6.990;2023-12-22T08:36:36;16.23;;;3.10;;
68089;SDS011;54880;50.986;6.990;2023-12-22T08:39:01;29.63;;;4.37;;
68089;SDS011;54880;50.986;6.990;2023-12-22T08:41:26;16.43;;;4.00;;
68089;SDS011;54880;50.986;6.990;2023-12-22T08:43:52;19.00;;;4.20;;
68089;SDS011;54880;50.986;6.990;2023-12-22T08:46:17;28.20;;;5.00;;
68089;SDS011;54880;50.986;6.990;2023-12-22T08:48:43;25.05;;;4.15;;
68089;SDS011;54880;50.986;6.990;2023-12-22T08:51:08;22.93;;;4.63;;
68089;SDS011;54880;50.986;6.990;2023-12-22T08:53:33;20.97;;;3.80;;
68089;SDS011;54880;50.986;6.990;2023-12-22T08:56:02;13.23;;;3.17;;
68089;SDS011;54880;50.986;6.990;2023-12-22T08:58:28;23.58;;;3.78;;
68089;SDS011;54880;50.986;6.990;2023-12-22T09:00:53;21.73;;;2.73;;
68089;SDS011;54880;50.986;6.990;2023-12-22T09:03:18;18.27;;;3.00;;
68089;SDS011;54880;50.986;6.990;2023-12-22T09:05:43;16.63;;;2.37;;
68089;SDS011;54880;50.986;6.990;2023-12-22T09:08:08;22.17;;;3.30;;
68089;SDS011;54880;50.986;6.990;2023-12-22T09:10:34;17.93;;;2.63;;
68089;SDS011;54880;50.986;6.990;2023-12-22T09:13:00;21.10;;;3.03;;
68089;SDS011;54880;50.986;6.990;2023-12-22T09:15:25;19.90;;;2.80;;
68089;SDS011;54880;50.986;6.990;2023-12-22T09:17:51;30.83;;;5.32;;
68089;SDS011;54880;50.986;6.990;2023-12-22T09:20:18;22.40;;;3.47;;
68089;SDS011;54880;50.986;6.990;2023-12-22T09:22:43;15.43;;;2.63;;
68089;SDS011;54880;50.986;6.990;2023-12-22T09:25:08;19.07;;;2.90;;
68089;SDS011;54880;50.986;6.990;2023-12-22T09:27:34;16.63;;;4.17;;
68089;SDS011;54880;50.986;6.990;2023-12-22T09:29:59;13.07;;;2.53;;
68089;SDS011;54880;50.986;6.990;2023-12-22T09:32:24;17.30;;;2.90;;
68089;SDS011;54880;50.986;6.990;2023-12-22T09:34:49;15.60;;;2.90;;
68089;SDS011;54880;50.986;6.990;2023-12-22T09:37:15;17.60;;;2.97;;
68089;SDS011;54880;50.986;6.990;2023-12-22T09:39:40;14.80;;;2.53;;
68089;SDS011;54880;50.986;6.990;2023-12-22T09:42:05;21.97;;;3.13;;
68089;SDS011;54880;50.986;6.990;2023-12-22T09:44:31;18.63;;;3.13;;
68089;SDS011;54880;50.986;6.990;2023-12-22T09:46:57;20.08;;;2.92;;
68089;SDS011;54880;50.986;6.990;2023-12-22T09:49:23;15.32;;;2.30;;
68089;SDS011;54880;50.986;6.990;2023-12-22T09:51:49;12.53;;;2.67;;
68089;SDS011;54880;50.986;6.990;2023-12-22T09:54:15;11.95;;;1.95;;
68089;SDS011;54880;50.986;6.990;2023-12-22T09:56:41;12.27;;;2.50;;
68089;SDS011;54880;50.986;6.990;2023-12-22T09:59:09;14.17;;;2.80;;
68089;SDS011;54880;50.986;6.990;2023-12-22T10:01:36;16.38;;;2.60;;
68089;SDS011;54880;50.986;6.990;2023-12-22T10:04:02;13.38;;;3.15;;
68089;SDS011;54880;50.986;6.990;2023-12-22T10:06:27;12.87;;;1.93;;
68089;SDS011;54880;50.986;6.990;2023-12-22T10:08:52;13.00;;;2.57;;
68089;SDS011;54880;50.986;6.990;2023-12-22T10:11:18;11.40;;;2.00;;
68089;SDS011;54880;50.986;6.990;2023-12-22T10:13:46;15.33;;;2.20;;
68089;SDS011;54880;50.986;6.990;2023-12-22T10:16:11;13.65;;;2.38;;
68089;SDS011;54880;50.986;6.990;2023-12-22T10:18:36;14.13;;;2.03;;
68089;SDS011;54880;50.986;6.990;2023-12-22T10:21:02;8.97;;;2.00;;
68089;SDS011;54880;50.986;6.990;2023-12-22T10:23:27;10.07;;;1.93;;
68089;SDS011;54880;50.986;6.990;2023-12-22T10:25:52;8.50;;;1.83;;
68089;SDS011;54880;50.986;6.990;2023-12-22T10:28:18;5.67;;;1.30;;
68089;SDS011;54880;50.986;6.990;2023-12-22T10:30:47;8.02;;;1.77;;
68089;SDS011;54880;50.986;6.990;2023-12-22T10:33:12;7.30;;;1.40;;
68089;SDS011;54880;50.986;6.990;2023-12-22T10:35:38;9.43;;;1.77;;
68089;SDS011;54880;50.986;6.990;2023-12-22T10:38:03;10.67;;;1.80;;
68089;SDS011;54880;50.986;6.990;2023-12-22T10:40:29;6.20;;;1.60;;
68089;SDS011;54880;50.986;6.990;2023-12-22T10:42:54;8.53;;;1.97;;
68089;SDS011;54880;50.986;6.990;2023-12-22T10:45:19;11.57;;;1.90;;
68089;SDS011;54880;50.986;6.990;2023-12-22T10:47:45;7.07;;;1.73;;
68089;SDS011;54880;50.986;6.990;2023-12-22T10:50:13;8.68;;;2.30;;
68089;SDS011;54880;50.986;6.990;2023-12-22T10:52:39;9.90;;;2.17;;
68089;SDS011;54880;50.986;6.990;2023-12-22T10:55:04;7.87;;;1.73;;
68089;SDS011;54880;50.986;6.990;2023-12-22T10:57:30;10.30;;;2.10;;
68089;SDS011;54880;50.986;6.990;2023-12-22T10:59:56;13.47;;;2.23;;
68089;SDS011;54880;50.986;6.990;2023-12-22T11:02:27;8.55;;;1.90;;
68089;SDS011;54880;50.986;6.990;2023-12-22T11:04:57;5.95;;;1.60;;
68089;SDS011;54880;50.986;6.990;2023-12-22T11:07:25;7.53;;;1.70;;
68089;SDS011;54880;50.986;6.990;2023-12-22T11:09:53;10.57;;;2.63;;
68089;SDS011;54880;50.986;6.990;2023-12-22T11:12:20;8.93;;;2.27;;
68089;SDS011;54880;50.986;6.990;2023-12-22T11:14:47;5.85;;;1.40;;
68089;SDS011;54880;50.986;6.990;2023-12-22T11:17:17;6.50;;;1.63;;
68089;SDS011;54880;50.986;6.990;2023-12-22T11:19:43;7.22;;;1.50;;
68089;SDS011;54880;50.986;6.990;2023-12-22T11:22:08;7.73;;;1.60;;
68089;SDS011;54880;50.986;6.990;2023-12-22T11:24:34;9.57;;;1.90;;
68089;SDS011;54880;50.986;6.990;2023-12-22T11:27:00;6.60;;;1.77;;
68089;SDS011;54880;50.986;6.990;2023-12-22T11:29:26;7.43;;;1.70;;
68089;SDS011;54880;50.986;6.990;2023-12-22T11:31:53;6.38;;;1.70;;
68089;SDS011;54880;50.986;6.990;2023-12-22T11:34:20;5.97;;;1.40;;
68089;SDS011;54880;50.986;6.990;2023-12-22T11:36:46;6.65;;;1.75;;
68089;SDS011;54880;50.986;6.990;2023-12-22T11:39:12;6.20;;;1.80;;
68089;SDS011;54880;50.986;6.990;2023-12-22T11:41:37;8.17;;;2.00;;
68089;SDS011;54880;50.986;6.990;2023-12-22T11:44:04;8.40;;;1.77;;
68089;SDS011;54880;50.986;6.990;2023-12-22T11:46:30;6.28;;;1.40;;
68089;SDS011;54880;50.986;6.990;2023-12-22T11:48:55;9.40;;;1.70;;
68089;SDS011;54880;50.986;6.990;2023-12-22T11:51:21;7.80;;;2.00;;
68089;SDS011;54880;50.986;6.990;2023-12-22T11:53:47;5.63;;;1.63;;
68089;SDS011;54880;50.986;6.990;2023-12-22T11:56:12;6.35;;;2.05;;
68089;SDS011;54880;50.986;6.990;2023-12-22T11:58:47;5.93;;;1.57;;
68089;SDS011;54880;50.986;6.990;2023-12-22T12:01:24;8.05;;;2.10;;
68089;SDS011;54880;50.986;6.990;2023-12-22T12:03:50;8.55;;;1.90;;
68089;SDS011;54880;50.986;6.990;2023-12-22T12:06:21;7.87;;;2.00;;
68089;SDS011;54880;50.986;6.990;2023-12-22T12:08:47;6.30;;;1.48;;
68089;SDS011;54880;50.986;6.990;2023-12-22T12:11:14;9.32;;;2.28;;
68089;SDS011;54880;50.986;6.990;2023-12-22T12:13:41;5.60;;;1.40;;
68089;SDS011;54880;50.986;6.990;2023-12-22T12:16:07;7.85;;;1.80;;
68089;SDS011;54880;50.986;6.990;2023-12-22T12:18:33;8.93;;;1.67;;
68089;SDS011;54880;50.986;6.990;2023-12-22T12:20:59;8.32;;;1.70;;
68089;SDS011;54880;50.986;6.990;2023-12-22T12:23:25;7.47;;;1.57;;
68089;SDS011;54880;50.986;6.990;2023-12-22T12:25:52;5.45;;;1.60;;
68089;SDS011;54880;50.986;6.990;2023-12-22T12:28:17;7.55;;;1.73;;
68089;SDS011;54880;50.986;6.990;2023-12-22T12:30:49;5.70;;;1.50;;
68089;SDS011;54880;50.986;6.990;2023-12-22T12:33:22;7.17;;;1.60;;
68089;SDS011;54880;50.986;6.990;2023-12-22T12:35:48;7.72;;;2.00;;
68089;SDS011;54880;50.986;6.990;2023-12-22T12:38:13;4.83;;;1.50;;
68089;SDS011;54880;50.986;6.990;2023-12-22T12:40:41;8.18;;;1.45;;
68089;SDS011;54880;50.986;6.990;2023-12-22T12:43:10;6.78;;;1.40;;
68089;SDS011;54880;50.986;6.990;2023-12-22T12:45:36;11.93;;;1.60;;
68089;SDS011;54880;50.986;6.990;2023-12-22T12:48:02;9.23;;;2.10;;
68089;SDS011;54880;50.986;6.990;2023-12-22T12:50:28;5.80;;;1.10;;
68089;SDS011;54880;50.986;6.990;2023-12-22T12:52:56;7.22;;;1.20;;
68089;SDS011;54880;50.986;6.990;2023-12-22T12:55:22;8.63;;;2.20;;
68089;SDS011;54880;50.986;6.990;2023-12-22T12:57:48;7.57;;;1.98;;
68089;SDS011;54880;50.986;6.990;2023-12-22T13:00:14;6.97;;;1.45;;
68089;SDS011;54880;50.986;6.990;2023-12-22T13:02:39;7.87;;;1.93;;
68089;SDS011;54880;50.986;6.990;2023-12-22T13:05:05;6.73;;;1.20;;
68089;SDS011;54880;50.986;6.990;2023-12-22T13:07:31;6.03;;;1.40;;
68089;SDS011;54880;50.986;6.990;2023-12-22T13:09:57;6.27;;;1.20;;
68089;SDS011;54880;50.986;6.990;2023-12-22T13:12:23;5.90;;;1.10;;
68089;SDS011;54880;50.986;6.990;2023-12-22T13:14:49;6.05;;;1.20;;
68089;SDS011;54880;50.986;6.990;2023-12-22T13:17:14;5.37;;;1.20;;
68089;SDS011;54880;50.986;6.990;2023-12-22T13:19:40;7.20;;;1.87;;
68089;SDS011;54880;50.986;6.990;2023-12-22T13:22:05;6.85;;;1.75;;
68089;SDS011;54880;50.986;6.990;2023-12-22T13:24:30;5.38;;;1.27;;
68089;SDS011;54880;50.986;6.990;2023-12-22T13:26:59;7.90;;;1.50;;
68089;SDS011;54880;50.986;6.990;2023-12-22T13:29:26;8.13;;;0.90;;
68089;SDS011;54880;50.986;6.990;2023-12-22T13:31:51;6.10;;;1.00;;
68089;SDS011;54880;50.986;6.990;2023-12-22T13:34:16;8.83;;;1.10;;
68089;SDS011;54880;50.986;6.990;2023-12-22T13:36:42;6.27;;;1.53;;
68089;SDS011;54880;50.986;6.990;2023-12-22T13:39:07;7.27;;;1.57;;
68089;SDS011;54880;50.986;6.990;2023-12-22T13:41:39;5.25;;;1.40;;
68089;SDS011;54880;50.986;6.990;2023-12-22T13:44:10;6.45;;;1.15;;
68089;SDS011;54880;50.986;6.990;2023-12-22T13:46:35;6.63;;;1.13;;
68089;SDS011;54880;50.986;6.990;2023-12-22T13:49:02;4.80;;;1.10;;
68089;SDS011;54880;50.986;6.990;2023-12-22T13:51:27;9.68;;;1.60;;
68089;SDS011;54880;50.986;6.990;2023-12-22T13:54:03;5.20;;;1.20;;
68089;SDS011;54880;50.986;6.990;2023-12-22T13:56:32;5.90;;;1.80;;
68089;SDS011;54880;50.986;6.990;2023-12-22T13:59:00;6.45;;;1.40;;
68089;SDS011;54880;50.986;6.990;2023-12-22T14:01:25;7.50;;;1.30;;
68089;SDS011;54880;50.986;6.990;2023-12-22T14:03:50;8.00;;;1.63;;
68089;SDS011;54880;50.986;6.990;2023-12-22T14:06:16;9.90;;;1.93;;
68089;SDS011;54880;50.986;6.990;2023-12-22T14:08:41;8.43;;;2.30;;
68089;SDS011;54880;50.986;6.990;2023-12-22T14:11:07;6.28;;;1.40;;
68089;SDS011;54880;50.986;6.990;2023-12-22T14:13:32;9.57;;;1.70;;
68089;SDS011;54880;50.986;6.990;2023-12-22T14:15:58;6.77;;;1.60;;
68089;SDS011;54880;50.986;6.990;2023-12-22T14:18:23;9.70;;;2.50;;
68089;SDS011;54880;50.986;6.990;2023-12-22T14:20:48;8.97;;;1.50;;
68089;SDS011;54880;50.986;6.990;2023-12-22T14:23:13;8.03;;;1.97;;
68089;SDS011;54880;50.986;6.990;2023-12-22T14:25:44;11.60;;;2.80;;
68089;SDS011;54880;50.986;6.990;2023-12-22T14:28:10;11.40;;;2.28;;
68089;SDS011;54880;50.986;6.990;2023-12-22T14:30:35;9.17;;;2.27;;
68089;SDS011;54880;50.986;6.990;2023-12-22T14:33:00;10.50;;;2.43;;
68089;SDS011;54880;50.986;6.990;2023-12-22T14:35:25;8.43;;;1.50;;